createdAt,value
2018-02-12T00:00:54.696Z,3.40
2018-02-12T00:03:23.145Z,3.00
2018-02-12T00:05:51.580Z,3.10
2018-02-12T00:08:20.649Z,3.67
2018-02-12T00:10:49.106Z,2.90
2018-02-12T00:13:17.535Z,2.50
2018-02-12T00:15:46.346Z,3.00
2018-02-12T00:18:14.880Z,4.80
2018-02-12T00:20:43.284Z,4.28
2018-02-12T00:23:11.768Z,3.40
2018-02-12T00:25:40.248Z,3.47
2018-02-12T00:28:08.655Z,3.08
2018-02-12T00:30:37.440Z,3.10
2018-02-12T00:33:05.845Z,2.78
2018-02-12T00:35:34.298Z,3.05
2018-02-12T00:38:03.635Z,4.07
2018-02-12T00:40:32.041Z,3.20
2018-02-12T00:43:00.792Z,2.83
2018-02-12T00:45:29.662Z,2.35
2018-02-12T00:47:58.410Z,3.22
2018-02-12T00:50:26.892Z,3.85
2018-02-12T00:52:56.022Z,2.72
2018-02-12T00:55:24.467Z,2.50
2018-02-12T00:57:53.083Z,3.15
2018-02-12T01:00:21.945Z,2.42
2018-02-12T01:02:50.739Z,3.28
2018-02-12T01:05:19.209Z,3.17
2018-02-12T01:07:48.983Z,2.35
2018-02-12T01:10:17.392Z,3.20
2018-02-12T01:12:45.805Z,2.85
2018-02-12T01:15:15.549Z,3.05
2018-02-12T01:17:43.976Z,3.05
2018-02-12T01:20:12.399Z,4.12
2018-02-12T01:22:40.888Z,3.25
2018-02-12T01:25:09.303Z,3.67
2018-02-12T01:27:37.701Z,3.42
2018-02-12T01:30:06.224Z,2.95
2018-02-12T01:32:34.635Z,3.25
2018-02-12T01:35:03.045Z,4.78
2018-02-12T01:37:31.776Z,3.03
2018-02-12T01:40:00.749Z,2.97
2018-02-12T01:42:29.344Z,3.58
2018-02-12T01:44:58.282Z,3.20
2018-02-12T01:47:26.786Z,2.67
2018-02-12T01:52:58.232Z,4.53
2018-02-12T01:55:27.621Z,3.53
2018-02-12T01:57:56.125Z,2.20
2018-02-12T02:00:24.722Z,2.72
2018-02-12T02:02:53.338Z,2.85
2018-02-12T02:05:22.706Z,3.62
2018-02-12T02:07:51.162Z,3.65
2018-02-12T02:10:19.772Z,2.45
2018-02-12T02:12:48.178Z,2.72
2018-02-12T02:15:17.384Z,2.83
2018-02-12T02:17:46.165Z,4.28
2018-02-12T02:20:14.578Z,3.15
2018-02-12T02:22:43.024Z,3.90
2018-02-12T02:25:12.093Z,2.78
2018-02-12T02:27:40.577Z,3.42
2018-02-12T02:30:08.966Z,3.85
2018-02-12T02:32:37.433Z,2.70
2018-02-12T02:35:05.814Z,3.25
2018-02-12T02:37:34.228Z,4.47
2018-02-12T02:40:02.667Z,3.37
2018-02-12T02:42:31.044Z,3.78
2018-02-12T02:44:59.493Z,3.92
2018-02-12T02:47:28.091Z,3.72
2018-02-12T02:49:56.680Z,3.05
2018-02-12T02:52:25.159Z,3.90
2018-02-12T02:54:53.705Z,4.60
2018-02-12T02:57:23.005Z,3.30
2018-02-12T02:59:51.544Z,3.45
2018-02-12T03:02:19.994Z,3.85
2018-02-12T03:04:48.443Z,3.75
2018-02-12T03:07:16.896Z,3.62
2018-02-12T03:09:45.611Z,2.75
2018-02-12T03:12:14.018Z,3.30
2018-02-12T03:14:42.410Z,3.37
2018-02-12T03:17:10.941Z,3.47
2018-02-12T03:19:39.419Z,3.03
2018-02-12T03:22:07.801Z,2.80
2018-02-12T03:24:36.992Z,2.58
2018-02-12T03:27:05.382Z,4.03
2018-02-12T03:29:33.858Z,2.60
2018-02-12T03:32:03.371Z,2.78
2018-02-12T03:34:31.785Z,2.95
2018-02-12T03:37:00.267Z,2.70
2018-02-12T03:39:29.119Z,3.40
2018-02-12T03:41:57.602Z,2.97
2018-02-12T03:44:26.079Z,2.55
2018-02-12T03:46:54.995Z,3.67
2018-02-12T03:49:23.455Z,3.85
2018-02-12T03:51:52.880Z,3.10
2018-02-12T03:54:22.201Z,2.92
2018-02-12T03:56:50.637Z,2.92
2018-02-12T03:59:19.024Z,3.22
2018-02-12T04:01:49.017Z,2.58
2018-02-12T04:04:17.894Z,2.70
2018-02-12T04:06:46.296Z,2.92
2018-02-12T04:09:15.070Z,2.85
2018-02-12T04:11:43.548Z,2.90
2018-02-12T04:14:11.952Z,2.87
2018-02-12T04:16:40.570Z,2.42
2018-02-12T04:19:08.960Z,3.50
2018-02-12T04:21:37.365Z,2.78
2018-02-12T04:24:08.121Z,2.67
2018-02-12T04:26:36.525Z,2.30
2018-02-12T04:29:04.932Z,2.30
2018-02-12T04:31:34.498Z,2.55
2018-02-12T04:34:03.041Z,4.50
2018-02-12T04:36:31.486Z,2.80
2018-02-12T04:39:00.482Z,2.50
2018-02-12T04:41:28.925Z,2.50
2018-02-12T04:43:57.483Z,4.53
2018-02-12T04:46:27.977Z,3.30
2018-02-12T04:48:56.429Z,1.80
2018-02-12T04:51:25.086Z,2.20
2018-02-12T04:53:53.905Z,2.30
2018-02-12T04:56:22.361Z,2.40
2018-02-12T04:58:50.908Z,3.08
2018-02-12T05:01:19.448Z,2.65
2018-02-12T05:03:47.853Z,2.58
2018-02-12T05:06:16.250Z,2.05
2018-02-12T05:08:44.711Z,2.87
2018-02-12T05:11:13.097Z,2.70
2018-02-12T05:13:41.498Z,3.05
2018-02-12T05:16:10.257Z,2.35
2018-02-12T05:18:38.656Z,3.20
2018-02-12T05:21:07.068Z,2.50
2018-02-12T05:23:35.922Z,2.72
2018-02-12T05:26:04.448Z,3.87
2018-02-12T05:28:32.856Z,3.22
2018-02-12T05:31:01.579Z,2.92
2018-02-12T05:33:30.056Z,3.25
2018-02-12T05:35:58.738Z,2.75
2018-02-12T05:38:27.275Z,3.78
2018-02-12T05:40:55.729Z,2.40
2018-02-12T05:43:24.231Z,2.25
2018-02-12T05:45:53.169Z,2.50
2018-02-12T05:48:21.650Z,2.42
2018-02-12T05:50:50.171Z,2.00
2018-02-12T05:53:18.980Z,3.30
2018-02-12T05:55:47.421Z,2.33
2018-02-12T05:58:15.870Z,2.12
2018-02-12T06:00:44.476Z,2.25
2018-02-12T06:03:12.882Z,2.87
2018-02-12T06:05:41.349Z,2.70
2018-02-12T06:08:10.726Z,3.08
2018-02-12T06:10:39.117Z,2.62
2018-02-12T06:13:07.532Z,2.97
2018-02-12T06:15:36.361Z,2.85
2018-02-12T06:18:04.770Z,2.30
2018-02-12T06:20:33.158Z,2.25
2018-02-12T06:23:01.740Z,3.12
2018-02-12T06:25:30.224Z,2.37
2018-02-12T06:27:58.708Z,3.58
2018-02-12T06:30:27.572Z,2.58
2018-02-12T06:32:55.981Z,2.55
2018-02-12T06:35:24.594Z,3.45
2018-02-12T06:37:53.212Z,2.00
2018-02-12T06:40:21.730Z,4.68
2018-02-12T06:42:50.188Z,2.25
2018-02-12T06:45:19.284Z,2.83
2018-02-12T06:47:48.240Z,3.33
2018-02-12T06:50:16.653Z,2.10
2018-02-12T06:52:45.236Z,2.10
2018-02-12T06:55:13.630Z,2.53
2018-02-12T06:57:42.072Z,2.05
2018-02-12T07:00:10.509Z,2.95
2018-02-12T07:02:38.914Z,1.80
2018-02-12T07:05:07.295Z,2.00
2018-02-12T07:07:35.797Z,2.20
2018-02-12T07:10:04.258Z,2.75
2018-02-12T07:12:32.722Z,1.60
2018-02-12T07:15:01.940Z,2.60
2018-02-12T07:17:30.433Z,2.35
2018-02-12T07:19:58.895Z,1.27
2018-02-12T07:22:27.588Z,1.35
2018-02-12T07:24:56.066Z,2.40
2018-02-12T07:27:24.541Z,1.33
2018-02-12T07:29:53.145Z,1.10
2018-02-12T07:32:21.731Z,1.30
2018-02-12T07:34:50.259Z,1.40
2018-02-12T07:37:18.868Z,1.02
2018-02-12T07:39:47.280Z,1.87
2018-02-12T07:42:15.706Z,1.40
2018-02-12T07:44:44.581Z,1.02
2018-02-12T07:47:13.006Z,1.52
2018-02-12T07:49:41.489Z,1.60
2018-02-12T07:52:10.393Z,1.35
2018-02-12T07:54:38.858Z,1.05
2018-02-12T07:57:07.328Z,1.30
2018-02-12T07:59:36.231Z,1.45
2018-02-12T08:02:04.694Z,1.30
2018-02-12T08:04:33.083Z,1.00
2018-02-12T08:07:01.545Z,1.95
2018-02-12T08:09:29.981Z,1.17
2018-02-12T08:11:58.598Z,1.20
2018-02-12T08:14:27.214Z,0.88
2018-02-12T08:16:55.697Z,0.82
2018-02-12T08:19:24.137Z,1.40
2018-02-12T08:21:52.658Z,1.73
2018-02-12T08:24:22.122Z,1.23
2018-02-12T08:26:51.301Z,0.82
2018-02-12T08:29:20.233Z,0.68
2018-02-12T08:31:48.684Z,0.70
2018-02-12T08:34:17.094Z,1.17
2018-02-12T08:36:45.877Z,0.90
2018-02-12T08:39:14.385Z,0.60
2018-02-12T08:41:42.840Z,0.73
2018-02-12T08:44:11.655Z,0.65
2018-02-12T08:46:40.044Z,0.60
2018-02-12T08:49:08.452Z,0.68
2018-02-12T08:51:37.220Z,0.70
2018-02-12T08:54:06.626Z,0.85
2018-02-12T08:56:35.050Z,0.40
2018-02-12T08:59:04.186Z,1.08
2018-02-12T09:01:32.572Z,2.87
2018-02-12T09:04:00.996Z,0.60
2018-02-12T09:06:29.754Z,0.98
2018-02-12T09:08:58.253Z,0.70
2018-02-12T09:11:26.661Z,0.50
2018-02-12T09:13:55.299Z,1.12
2018-02-12T09:16:23.949Z,0.80
2018-02-12T09:18:52.514Z,0.77
2018-02-12T09:21:21.503Z,0.50
2018-02-12T09:23:49.919Z,0.93
2018-02-12T09:26:19.065Z,0.68
2018-02-12T09:28:47.918Z,0.75
2018-02-12T09:31:16.358Z,0.80
2018-02-12T09:33:44.912Z,1.02
2018-02-12T09:36:13.350Z,0.80
2018-02-12T09:38:41.755Z,0.70
2018-02-12T09:41:10.254Z,0.80
2018-02-12T09:43:38.874Z,0.82
2018-02-12T09:46:07.287Z,1.17
2018-02-12T09:48:35.725Z,1.00
2018-02-12T09:51:04.464Z,0.90
2018-02-12T09:53:32.974Z,0.88
2018-02-12T09:56:01.435Z,0.70
2018-02-12T09:58:30.083Z,0.90
2018-02-12T10:00:58.637Z,0.57
2018-02-12T10:03:27.196Z,0.70
2018-02-12T10:05:56.094Z,0.62
2018-02-12T10:08:24.783Z,0.60
2018-02-12T10:10:53.293Z,0.88
2018-02-12T10:13:22.828Z,0.50
2018-02-12T10:15:51.859Z,0.70
2018-02-12T10:18:21.636Z,0.50
2018-02-12T10:20:50.519Z,0.90
2018-02-12T10:23:19.054Z,1.40
2018-02-12T10:25:47.473Z,0.60
2018-02-12T10:28:16.294Z,0.60
2018-02-12T10:30:44.685Z,1.60
2018-02-12T10:33:13.089Z,0.70
2018-02-12T10:35:41.870Z,0.88
2018-02-12T10:38:10.274Z,1.00
2018-02-12T10:40:38.703Z,0.88
2018-02-12T10:43:07.144Z,0.88
2018-02-12T10:45:35.604Z,1.25
2018-02-12T10:48:04.068Z,1.50
2018-02-12T10:50:32.561Z,1.12
2018-02-12T10:53:01.121Z,1.08
2018-02-12T10:55:30.438Z,1.25
2018-02-12T10:57:59.293Z,1.35
2018-02-12T11:00:28.013Z,1.48
2018-02-12T11:02:56.477Z,3.47
2018-02-12T11:05:25.277Z,1.12
2018-02-12T11:07:53.991Z,1.65
2018-02-12T11:10:22.496Z,1.90
2018-02-12T11:12:51.601Z,1.30
2018-02-12T11:15:20.201Z,1.00
2018-02-12T11:17:48.656Z,1.42
2018-02-12T11:20:17.133Z,2.12
2018-02-12T11:22:45.531Z,1.65
2018-02-12T11:25:13.943Z,1.42
2018-02-12T11:27:42.546Z,1.73
2018-02-12T11:30:11.002Z,1.58
2018-02-12T11:32:39.400Z,1.65
2018-02-12T11:35:08.093Z,1.85
2018-02-12T11:37:36.592Z,1.65
2018-02-12T11:40:05.057Z,3.17
2018-02-12T11:42:33.668Z,1.75
2018-02-12T11:45:02.089Z,2.50
2018-02-12T11:47:30.714Z,2.25
2018-02-12T11:49:59.742Z,2.08
2018-02-12T11:52:28.172Z,2.60
2018-02-12T11:54:56.605Z,3.97
2018-02-12T11:57:25.563Z,3.42
2018-02-12T11:59:54.593Z,2.87
2018-02-12T12:02:23.842Z,3.50
2018-02-12T12:04:52.698Z,2.42
2018-02-12T12:07:21.481Z,2.10
2018-02-12T12:09:49.910Z,3.37
2018-02-12T12:12:18.881Z,3.40
2018-02-12T12:14:47.320Z,2.97
2018-02-12T12:17:15.802Z,2.53
2018-02-12T12:19:44.445Z,2.47
2018-02-12T12:22:13.628Z,2.87
2018-02-12T12:24:42.036Z,3.22
2018-02-12T12:27:10.661Z,2.45
2018-02-12T12:29:39.082Z,2.33
2018-02-12T12:32:07.508Z,2.60
2018-02-12T12:34:36.300Z,2.83
2018-02-12T12:37:04.738Z,2.00
2018-02-12T12:39:33.147Z,2.10
2018-02-12T12:42:01.808Z,2.12
2018-02-12T12:44:30.308Z,2.03
2018-02-12T12:46:58.888Z,2.53
2018-02-12T12:49:27.982Z,3.10
2018-02-12T12:51:56.666Z,3.20
2018-02-12T12:54:25.288Z,2.15
2018-02-12T12:56:53.825Z,2.33
2018-02-12T12:59:22.608Z,3.08
2018-02-12T13:01:51.109Z,2.72
2018-02-12T13:04:19.668Z,1.70
2018-02-12T13:06:48.073Z,3.10
2018-02-12T13:09:16.524Z,2.78
2018-02-12T13:11:45.405Z,2.65
2018-02-12T13:14:13.853Z,2.35
2018-02-12T13:16:42.266Z,3.17
2018-02-12T13:19:10.739Z,1.83
2018-02-12T13:21:39.134Z,1.50
2018-02-12T13:24:07.620Z,2.85
2018-02-12T13:26:36.277Z,3.03
2018-02-12T13:29:04.686Z,2.60
2018-02-12T13:31:33.109Z,2.70
2018-02-12T13:34:01.793Z,2.45
2018-02-12T13:36:30.616Z,2.62
2018-02-12T13:38:59.179Z,2.10
2018-02-12T13:41:28.080Z,2.55
2018-02-12T13:43:56.566Z,1.77
2018-02-12T13:46:24.992Z,2.10
2018-02-12T13:48:53.878Z,1.67
2018-02-12T13:51:22.533Z,1.92
2018-02-12T13:53:51.613Z,1.70
2018-02-12T13:56:20.203Z,2.53
2018-02-12T13:58:48.625Z,2.08
2018-02-12T14:01:17.080Z,2.72
2018-02-12T14:03:45.853Z,2.00
2018-02-12T14:06:14.445Z,2.85
2018-02-12T14:08:42.856Z,2.28
2018-02-12T14:11:12.263Z,1.85
2018-02-12T14:13:40.717Z,2.47
2018-02-12T14:16:09.132Z,3.08
2018-02-12T14:18:37.573Z,1.77
2018-02-12T14:21:05.997Z,2.85
2018-02-12T14:23:35.436Z,1.70
2018-02-12T14:26:04.212Z,2.10
2018-02-12T14:28:33.004Z,1.60
2018-02-12T14:31:01.486Z,1.85
2018-02-12T14:33:30.200Z,1.87
2018-02-12T14:35:58.624Z,1.92
2018-02-12T14:38:27.305Z,1.35
2018-02-12T14:40:56.156Z,1.50
2018-02-12T14:43:25.252Z,2.08
2018-02-12T14:45:54.547Z,1.00
2018-02-12T14:48:23.212Z,1.50
2018-02-12T14:50:51.697Z,1.77
2018-02-12T14:53:20.099Z,1.87
2018-02-12T14:55:48.607Z,2.45
2018-02-12T14:58:17.015Z,2.58
2018-02-12T15:00:45.487Z,1.15
2018-02-12T15:03:14.117Z,1.98
2018-02-12T15:05:42.533Z,1.30
2018-02-12T15:08:11.030Z,1.27
2018-02-12T15:10:39.514Z,1.83
2018-02-12T15:13:07.893Z,1.87
2018-02-12T15:15:36.310Z,1.20
2018-02-12T15:18:04.773Z,1.50
2018-02-12T15:20:33.241Z,2.22
2018-02-12T15:23:01.653Z,1.80
2018-02-12T15:25:31.579Z,1.50
2018-02-12T15:28:00.109Z,1.95
2018-02-12T15:30:28.702Z,2.12
2018-02-12T15:32:57.268Z,1.52
2018-02-12T15:35:25.746Z,1.98
2018-02-12T15:37:54.208Z,2.40
2018-02-12T15:40:22.937Z,1.90
2018-02-12T15:42:51.519Z,2.35
2018-02-12T15:45:19.948Z,1.62
2018-02-12T15:47:48.385Z,2.25
2018-02-12T15:50:16.798Z,1.85
2018-02-12T15:52:45.216Z,2.60
2018-02-12T15:55:13.800Z,2.28
2018-02-12T15:57:42.206Z,1.90
2018-02-12T16:00:10.590Z,1.80
2018-02-12T16:02:39.043Z,2.20
2018-02-12T16:05:07.469Z,2.35
2018-02-12T16:07:35.906Z,2.08
2018-02-12T16:10:05.075Z,2.85
2018-02-12T16:12:33.750Z,1.95
2018-02-12T16:15:02.257Z,2.03
2018-02-12T16:17:30.735Z,2.28
2018-02-12T16:19:59.369Z,2.60
2018-02-12T16:22:27.948Z,3.03
2018-02-12T16:24:56.836Z,2.10
2018-02-12T16:27:25.533Z,2.20
2018-02-12T16:29:54.104Z,2.00
2018-02-12T16:32:23.617Z,2.10
2018-02-12T16:34:52.784Z,2.30
2018-02-12T16:37:21.487Z,1.45
2018-02-12T16:39:50.866Z,2.12
2018-02-12T16:42:19.306Z,3.10
2018-02-12T16:44:48.208Z,2.50
2018-02-12T16:47:16.664Z,1.70
2018-02-12T16:49:45.109Z,2.45
2018-02-12T16:52:13.523Z,4.00
2018-02-12T16:54:42.177Z,2.70
2018-02-12T16:57:10.597Z,2.83
2018-02-12T16:59:38.993Z,2.28
2018-02-12T17:02:08.076Z,3.08
2018-02-12T17:04:37.690Z,3.35
2018-02-12T17:07:06.099Z,2.05
2018-02-12T17:09:34.608Z,2.22
2018-02-12T17:12:03.028Z,1.83
2018-02-12T17:14:31.465Z,2.80
2018-02-12T17:17:00.132Z,2.20
2018-02-12T17:19:28.633Z,3.47
2018-02-12T17:21:57.106Z,2.95
2018-02-12T17:24:26.178Z,2.70
2018-02-12T17:26:54.675Z,2.75
2018-02-12T17:29:24.034Z,2.62
2018-02-12T17:31:53.963Z,2.72
2018-02-12T17:34:23.056Z,2.42
2018-02-12T17:36:51.528Z,2.37
2018-02-12T17:39:20.318Z,3.08
2018-02-12T17:41:48.745Z,2.80
2018-02-12T17:44:17.151Z,2.92
2018-02-12T17:46:46.282Z,3.83
2018-02-12T17:49:14.701Z,3.53
2018-02-12T17:51:43.097Z,2.53
2018-02-12T17:54:11.872Z,2.90
2018-02-12T17:56:40.310Z,2.40
2018-02-12T17:59:08.757Z,2.80
2018-02-12T18:01:38.079Z,2.87
2018-02-12T18:04:06.495Z,2.53
2018-02-12T18:06:34.892Z,3.22
2018-02-12T18:09:03.707Z,2.42
2018-02-12T18:11:32.136Z,2.90
2018-02-12T18:14:00.642Z,2.12
2018-02-12T18:16:29.231Z,2.05
2018-02-12T18:18:57.852Z,3.85
2018-02-12T18:21:26.580Z,4.93
2018-02-12T18:23:55.614Z,3.35
2018-02-12T18:26:24.096Z,2.50
2018-02-12T18:28:52.701Z,2.20
2018-02-12T18:31:22.021Z,3.58
2018-02-12T18:33:50.526Z,3.53
2018-02-12T18:36:18.982Z,2.67
2018-02-12T18:38:47.622Z,4.07
2018-02-12T18:41:16.033Z,3.58
2018-02-12T18:43:44.452Z,3.65
2018-02-12T18:46:13.752Z,2.87
2018-02-12T18:48:42.205Z,3.30
2018-02-12T18:51:09.940Z,3.83
2018-02-12T18:53:38.247Z,3.45
2018-02-12T18:56:06.719Z,2.90
2018-02-12T18:58:35.167Z,5.25
2018-02-12T19:01:03.778Z,3.08
2018-02-12T19:03:32.246Z,3.58
2018-02-12T19:06:00.933Z,3.47
2018-02-12T19:08:29.461Z,3.60
2018-02-12T19:10:58.056Z,3.75
2018-02-12T19:13:26.589Z,2.30
2018-02-12T19:15:55.944Z,4.82
2018-02-12T19:18:24.429Z,4.00
2018-02-12T19:20:53.159Z,2.40
2018-02-12T19:23:22.355Z,2.70
2018-02-12T19:25:50.859Z,2.47
2018-02-12T19:28:19.269Z,3.50
2018-02-12T19:30:48.294Z,2.97
2018-02-12T19:33:16.726Z,3.78
2018-02-12T19:35:45.180Z,2.85
2018-02-12T19:38:13.993Z,2.67
2018-02-12T19:40:42.428Z,2.62
2018-02-12T19:43:10.876Z,1.67
2018-02-12T19:45:40.251Z,1.98
2018-02-12T19:48:08.681Z,2.15
2018-02-12T19:50:37.226Z,2.83
2018-02-12T19:53:05.898Z,2.22
2018-02-12T19:55:34.322Z,2.75
2018-02-12T19:58:02.800Z,2.65
2018-02-12T20:00:31.530Z,1.92
2018-02-12T20:02:59.944Z,2.40
2018-02-12T20:05:28.420Z,2.12
2018-02-12T20:07:57.997Z,2.30
2018-02-12T20:10:26.888Z,2.30
2018-02-12T20:12:55.586Z,2.22
2018-02-12T20:15:24.466Z,2.17
2018-02-12T20:17:53.088Z,1.80
2018-02-12T20:20:21.594Z,2.08
2018-02-12T20:22:50.290Z,1.87
2018-02-12T20:25:19.081Z,1.42
2018-02-12T20:27:47.542Z,2.22
2018-02-12T20:30:16.196Z,1.90
2018-02-12T20:32:44.620Z,1.75
2018-02-12T20:35:13.023Z,1.87
2018-02-12T20:37:41.810Z,1.27
2018-02-12T20:40:10.247Z,2.50
2018-02-12T20:42:38.949Z,2.37
2018-02-12T20:45:07.515Z,2.30
2018-02-12T20:47:36.001Z,1.85
2018-02-12T20:50:04.501Z,2.58
2018-02-12T20:52:32.974Z,3.10
2018-02-12T20:55:01.454Z,3.53
2018-02-12T20:57:29.980Z,2.47
2018-02-12T20:59:58.613Z,1.85
2018-02-12T21:02:27.030Z,2.62
2018-02-12T21:04:55.437Z,2.28
2018-02-12T21:07:24.413Z,2.10
2018-02-12T21:09:52.980Z,2.53
2018-02-12T21:12:21.460Z,1.70
2018-02-12T21:14:50.038Z,2.70
2018-02-12T21:17:18.480Z,2.62
2018-02-12T21:19:46.891Z,2.95
2018-02-12T21:22:15.371Z,2.58
2018-02-12T21:24:43.788Z,2.83
2018-02-12T21:27:12.257Z,3.70
2018-02-12T21:29:40.715Z,3.25
2018-02-12T21:32:09.101Z,3.33
2018-02-12T21:34:37.716Z,3.25
2018-02-12T21:37:06.289Z,3.15
2018-02-12T21:39:34.693Z,2.62
2018-02-12T21:42:03.152Z,2.65
2018-02-12T21:44:31.913Z,3.40
2018-02-12T21:47:00.344Z,3.00
2018-02-12T21:49:28.809Z,2.20
2018-02-12T21:51:57.857Z,3.08
2018-02-12T21:54:26.681Z,3.80
2018-02-12T21:56:55.192Z,3.47
2018-02-12T21:59:24.258Z,3.95
2018-02-12T22:01:52.871Z,3.72
2018-02-12T22:04:21.521Z,4.07
2018-02-12T22:06:49.977Z,4.30
2018-02-12T22:09:18.416Z,5.40
2018-02-12T22:11:46.824Z,4.37
2018-02-12T22:14:15.995Z,3.58
2018-02-12T22:16:44.495Z,4.40
2018-02-12T22:19:12.890Z,3.62
2018-02-12T22:21:41.357Z,2.95
2018-02-12T22:24:09.759Z,3.83
2018-02-12T22:26:38.153Z,4.05
2018-02-12T22:29:06.980Z,3.87
2018-02-12T22:31:35.406Z,3.30
2018-02-12T22:34:03.836Z,4.30
2018-02-12T22:36:32.676Z,3.45
2018-02-12T22:39:01.163Z,3.60
2018-02-12T22:41:29.584Z,3.95
2018-02-12T22:43:58.170Z,4.43
2018-02-12T22:46:26.601Z,4.12
2018-02-12T22:48:55.073Z,5.70
2018-02-12T22:51:23.662Z,4.20
2018-02-12T22:53:52.120Z,4.57
2018-02-12T22:56:20.558Z,4.12
2018-02-12T22:58:49.021Z,4.53
2018-02-12T23:01:17.486Z,4.60
2018-02-12T23:03:45.900Z,4.25
2018-02-12T23:06:14.340Z,4.65
2018-02-12T23:08:42.756Z,5.70
2018-02-12T23:11:11.197Z,4.93
2018-02-12T23:13:40.082Z,4.55
2018-02-12T23:16:08.512Z,4.45
2018-02-12T23:18:36.981Z,5.95
2018-02-12T23:21:06.338Z,4.70
2018-02-12T23:23:34.767Z,6.40
2018-02-12T23:26:03.168Z,4.90
2018-02-12T23:28:31.884Z,4.90
2018-02-12T23:31:00.335Z,6.37
2018-02-12T23:33:28.764Z,5.20
2018-02-12T23:35:57.239Z,5.20
2018-02-12T23:38:25.726Z,5.25
2018-02-12T23:40:54.157Z,5.05
2018-02-12T23:43:23.596Z,5.03
2018-02-12T23:45:52.436Z,3.87
2018-02-12T23:48:20.961Z,6.20
2018-02-12T23:50:49.521Z,5.47
2018-02-12T23:53:17.990Z,4.85
2018-02-12T23:55:46.441Z,5.10
2018-02-12T23:58:16.108Z,5.53
